Time;durP1;ratioP1;P1;durP2;ratioP2;P2;SDS_P1;SDS_P2;PMS_P1;PMS_P2;Temp;Humidity;BMP_temperature;BMP_pressure;BME280_temperature;BME280_humidity;BME280_pressure;Samples;Min_cycle;Max_cycle;Signal;HPM_P1;HPM_P2
2021/05/01 00:00:37;;;;;;;11.75;7.62;;;;;;;11.25;100.00;99021.17;1794852;78;21561;-67
2021/05/01 00:03:05;;;;;;;15.58;8.58;;;;;;;11.23;100.00;99020.70;1799521;78;20980;-67
2021/05/01 00:05:33;;;;;;;16.30;8.55;;;;;;;11.16;100.00;99016.30;1832444;78;21638;-67
2021/05/01 00:08:00;;;;;;;13.98;8.40;;;;;;;11.10;100.00;99016.25;1832508;78;21028;-67
2021/05/01 00:10:29;;;;;;;15.72;8.75;;;;;;;11.05;100.00;99022.73;1832442;78;21200;-67
2021/05/01 00:12:57;;;;;;;15.05;9.10;;;;;;;11.01;100.00;99015.48;1832427;78;20956;-67
2021/05/01 00:15:25;;;;;;;12.88;8.63;;;;;;;10.96;100.00;99023.38;1832401;78;20929;-67
2021/05/01 00:17:52;;;;;;;14.63;9.28;;;;;;;10.93;100.00;99020.48;1829778;78;21051;-67
2021/05/01 00:20:20;;;;;;;15.90;10.13;;;;;;;10.86;100.00;99018.26;1832224;78;21001;-67
2021/05/01 00:22:48;;;;;;;16.05;9.88;;;;;;;10.80;100.00;99020.38;1831430;78;21350;-67
2021/05/01 00:25:16;;;;;;;14.03;8.13;;;;;;;10.78;100.00;99023.22;1831422;78;21154;-68
2021/05/01 00:27:43;;;;;;;13.00;8.65;;;;;;;10.76;100.00;99026.86;1832472;78;21004;-67
2021/05/01 00:30:13;;;;;;;9.98;7.90;;;;;;;10.69;100.00;99022.45;1832446;78;21510;-67
2021/05/01 00:32:40;;;;;;;8.60;6.60;;;;;;;10.56;100.00;99026.45;1832502;78;20941;-67
2021/05/01 00:35:10;;;;;;;13.38;7.60;;;;;;;10.45;99.94;99019.70;1832477;78;22123;-67
2021/05/01 00:37:37;;;;;;;11.30;8.08;;;;;;;10.35;99.79;99024.76;1832378;78;21119;-67
2021/05/01 00:40:07;;;;;;;14.28;9.13;;;;;;;10.27;100.00;99034.62;1832437;78;20984;-67
2021/05/01 00:42:35;;;;;;;10.48;7.72;;;;;;;10.23;100.00;99035.03;1812939;78;21562;-67
2021/05/01 00:45:05;;;;;;;16.50;10.80;;;;;;;10.19;100.00;99031.30;1815633;78;21153;-66
2021/05/01 00:47:33;;;;;;;14.78;10.58;;;;;;;10.17;100.00;99036.30;1796431;78;21185;-67
2021/05/01 00:50:01;;;;;;;12.43;9.38;;;;;;;10.16;100.00;99036.86;1789776;79;21827;-66
2021/05/01 00:52:29;;;;;;;12.53;10.03;;;;;;;10.18;100.00;99037.91;1813929;78;21074;-66
2021/05/01 00:54:58;;;;;;;18.80;10.82;;;;;;;10.17;100.00;99040.41;1789393;79;21478;-66
2021/05/01 00:57:26;;;;;;;12.63;8.60;;;;;;;10.16;100.00;99042.91;1794001;79;21109;-67
2021/05/01 00:59:53;;;;;;;12.63;8.18;;;;;;;10.13;100.00;99039.45;1781833;80;21335;-66
2021/05/01 01:02:23;;;;;;;12.50;8.28;;;;;;;10.07;100.00;99046.23;1781831;80;20927;-67
2021/05/01 01:04:50;;;;;;;11.57;7.40;;;;;;;9.96;100.00;99047.69;1781849;80;21475;-67
2021/05/01 01:07:18;;;;;;;11.68;7.17;;;;;;;9.83;100.00;99050.27;1781135;80;20999;-67
2021/05/01 01:09:48;;;;;;;8.48;6.78;;;;;;;9.73;100.00;99056.66;1757258;80;21145;-67
2021/05/01 01:12:17;;;;;;;12.58;7.17;;;;;;;9.63;100.00;99061.09;1781194;79;21195;-67
2021/05/01 01:14:46;;;;;;;15.08;6.67;;;;;;;9.53;99.88;99066.31;1767827;80;21003;-67
2021/05/01 01:17:13;;;;;;;9.55;7.15;;;;;;;9.43;99.78;99063.87;1809442;79;20980;-67
2021/05/01 01:19:42;;;;;;;9.85;6.95;;;;;;;9.34;99.63;99066.59;1813889;79;20948;-67
2021/05/01 01:22:17;;;;;;;10.63;7.15;;;;;;;9.25;99.67;99069.88;1806736;77;21149;-67
2021/05/01 01:24:44;;;;;;;10.75;7.10;;;;;;;9.21;99.95;99073.03;1792167;79;21421;-67
2021/05/01 01:27:12;;;;;;;11.12;7.70;;;;;;;9.19;100.00;99073.92;1755916;80;20967;-66
2021/05/01 01:29:42;;;;;;;11.38;8.83;;;;;;;9.18;100.00;99075.85;1780156;80;20932;-67
2021/05/01 01:32:11;;;;;;;9.40;6.42;;;;;;;9.21;100.00;99081.25;1780123;80;21055;-67
2021/05/01 01:34:43;;;;;;;9.45;6.85;;;;;;;9.26;100.00;99083.81;1780201;80;20924;-67
2021/05/01 01:37:11;;;;;;;10.00;7.12;;;;;;;9.31;100.00;99082.86;1780349;80;21427;-67
2021/05/01 01:39:42;;;;;;;14.75;10.20;;;;;;;9.35;100.00;99090.69;1780125;80;20948;-67
2021/05/01 01:42:11;;;;;;;15.85;11.90;;;;;;;9.42;100.00;99092.41;1780125;80;21491;-67
2021/05/01 01:44:40;;;;;;;16.42;10.50;;;;;;;9.50;100.00;99087.50;1780150;80;20995;-67
2021/05/01 01:47:08;;;;;;;10.68;7.97;;;;;;;9.58;100.00;99096.30;1780185;80;21086;-66
2021/05/01 01:49:39;;;;;;;12.30;8.13;;;;;;;9.66;100.00;99099.63;1782126;80;21129;-67
2021/05/01 01:52:07;;;;;;;10.38;7.58;;;;;;;9.68;100.00;99096.56;1786186;78;21198;-67
2021/05/01 01:54:35;;;;;;;13.93;8.38;;;;;;;9.67;100.00;99093.02;1798586;79;21015;-66
2021/05/01 01:57:04;;;;;;;12.07;8.03;;;;;;;9.63;100.00;99104.38;1782057;80;21681;-67
2021/05/01 01:59:34;;;;;;;11.08;8.28;;;;;;;9.58;100.00;99099.05;1782150;80;21034;-67
2021/05/01 02:02:02;;;;;;;16.52;9.35;;;;;;;9.54;100.00;99106.29;1782169;80;21199;-67
2021/05/01 02:04:30;;;;;;;12.03;7.75;;;;;;;9.51;100.00;99108.30;1781980;80;20971;-67
2021/05/01 02:06:58;;;;;;;11.35;7.15;;;;;;;9.51;100.00;99112.41;1767862;79;20948;-67
2021/05/01 02:09:28;;;;;;;13.32;8.08;;;;;;;9.49;100.00;99112.73;1815816;79;20994;-67
2021/05/01 02:11:57;;;;;;;14.53;7.90;;;;;;;9.44;100.00;99112.88;1815870;79;20983;-66
2021/05/01 02:14:25;;;;;;;14.23;10.03;;;;;;;9.40;100.00;99105.61;1815790;77;21353;-67
2021/05/01 02:16:54;;;;;;;18.73;10.43;;;;;;;9.38;100.00;99114.15;1815805;79;20987;-67
2021/05/01 02:19:22;;;;;;;12.13;8.45;;;;;;;9.40;100.00;99116.56;1815871;79;21071;-67
2021/05/01 02:21:50;;;;;;;11.35;8.45;;;;;;;9.40;100.00;99111.89;1815849;79;21498;-67
2021/05/01 02:24:18;;;;;;;15.30;8.98;;;;;;;9.37;100.00;99116.64;1815844;79;21035;-67
2021/05/01 02:26:46;;;;;;;18.40;9.98;;;;;;;9.33;100.00;99120.33;1806107;78;21201;-68
2021/05/01 02:29:14;;;;;;;14.00;10.18;;;;;;;9.28;100.00;99120.72;1795933;79;20995;-68
2021/05/01 02:31:41;;;;;;;16.97;11.12;;;;;;;9.24;100.00;99123.84;1798031;78;21189;-67
2021/05/01 02:34:09;;;;;;;13.20;10.13;;;;;;;9.21;100.00;99128.62;1796722;79;21538;-68
2021/05/01 02:36:37;;;;;;;16.48;9.83;;;;;;;9.22;100.00;99123.95;1815944;79;21114;-67
2021/05/01 02:39:06;;;;;;;15.78;10.70;;;;;;;9.20;100.00;99121.53;1813471;78;21370;-67
2021/05/01 02:41:34;;;;;;;16.67;10.98;;;;;;;9.21;100.00;99122.34;1777300;79;21177;-67
2021/05/01 02:44:04;;;;;;;14.47;10.43;;;;;;;9.19;100.00;99125.39;1794091;79;21050;-67
2021/05/01 02:46:31;;;;;;;14.85;10.25;;;;;;;9.18;100.00;99125.70;1814640;79;21085;-67
2021/05/01 02:49:00;;;;;;;14.58;10.68;;;;;;;9.16;100.00;99131.50;1781909;79;21027;-67
2021/05/01 02:51:27;;;;;;;15.78;9.73;;;;;;;9.12;100.00;99133.25;1808662;79;22247;-66
2021/05/01 02:53:56;;;;;;;18.20;10.72;;;;;;;9.10;100.00;99139.61;1805844;78;20975;-67
2021/05/01 02:56:24;;;;;;;17.05;9.60;;;;;;;9.09;100.00;99137.19;1815726;79;21047;-66
2021/05/01 02:58:52;;;;;;;16.37;11.05;;;;;;;9.10;100.00;99139.61;1815729;78;21042;-66
2021/05/01 03:01:20;;;;;;;14.90;10.45;;;;;;;9.11;100.00;99137.67;1815788;79;21042;-67
2021/05/01 03:03:48;;;;;;;18.65;11.40;;;;;;;9.13;100.00;99148.56;1815791;79;21201;-67
2021/05/01 03:06:15;;;;;;;16.60;11.25;;;;;;;9.13;100.00;99145.02;1814767;78;20986;-67
2021/05/01 03:08:43;;;;;;;17.52;10.88;;;;;;;9.14;100.00;99150.73;1807937;79;21648;-67
2021/05/01 03:11:12;;;;;;;18.65;10.95;;;;;;;9.17;100.00;99149.55;1809775;79;21006;-67
2021/05/01 03:13:40;;;;;;;19.92;11.68;;;;;;;9.19;100.00;99153.34;1810215;79;21085;-67
2021/05/01 03:16:09;;;;;;;16.35;11.28;;;;;;;9.19;100.00;99156.08;1764652;80;21198;-68
2021/05/01 03:18:39;;;;;;;15.58;11.18;;;;;;;9.20;100.00;99150.84;1811238;79;21009;-67
2021/05/01 03:21:06;;;;;;;16.40;10.65;;;;;;;9.19;100.00;99154.14;1816094;79;21105;-68
2021/05/01 03:23:34;;;;;;;17.05;11.45;;;;;;;9.18;100.00;99155.27;1814306;79;21192;-68
2021/05/01 03:26:03;;;;;;;17.07;12.10;;;;;;;9.20;100.00;99165.34;1815469;79;21088;-68
2021/05/01 03:28:31;;;;;;;17.55;12.45;;;;;;;9.22;100.00;99164.47;1815036;79;21350;-68
2021/05/01 03:30:59;;;;;;;25.82;15.90;;;;;;;9.26;100.00;99172.27;1815121;78;21103;-67
2021/05/01 03:33:28;;;;;;;22.93;15.00;;;;;;;9.30;100.00;99173.81;1815554;79;20977;-67
2021/05/01 03:35:56;;;;;;;23.52;15.70;;;;;;;9.36;100.00;99164.89;1815539;79;21096;-67
2021/05/01 03:38:23;;;;;;;22.95;15.50;;;;;;;9.44;100.00;99170.97;1814816;79;21149;-67
2021/05/01 03:40:52;;;;;;;25.20;15.53;;;;;;;9.49;100.00;99177.12;1815984;79;21183;-67
2021/05/01 03:43:20;;;;;;;22.93;16.07;;;;;;;9.52;100.00;99178.41;1787433;79;20943;-67
2021/05/01 03:45:48;;;;;;;24.87;15.23;;;;;;;9.58;100.00;99190.28;1782185;80;21526;-67
2021/05/01 03:48:16;;;;;;;28.17;15.72;;;;;;;9.67;100.00;99191.69;1813549;79;21098;-67
2021/05/01 03:50:43;;;;;;;25.27;17.05;;;;;;;9.72;100.00;99193.47;1813852;78;21062;-67
2021/05/01 03:53:11;;;;;;;23.30;16.10;;;;;;;9.78;100.00;99203.16;1812833;79;21192;-67
2021/05/01 03:55:39;;;;;;;27.17;17.30;;;;;;;9.85;100.00;99207.02;1829408;78;20942;-67
2021/05/01 03:58:07;;;;;;;25.35;17.12;;;;;;;9.93;100.00;99213.66;1832482;78;20929;-67
2021/05/01 04:00:34;;;;;;;28.92;18.32;;;;;;;10.00;100.00;99209.88;1828675;78;21121;-67
2021/05/01 04:03:03;;;;;;;28.70;18.75;;;;;;;10.10;100.00;99212.31;1816005;79;20920;-67
2021/05/01 04:05:33;;;;;;;31.07;19.52;;;;;;;10.20;100.00;99207.92;1816033;79;21190;-67
2021/05/01 04:08:01;;;;;;;33.28;17.35;;;;;;;10.33;100.00;99217.70;1815859;79;20924;-67
2021/05/01 04:10:29;;;;;;;26.85;18.92;;;;;;;10.45;100.00;99209.61;1815981;79;20955;-68
2021/05/01 04:12:56;;;;;;;27.67;18.50;;;;;;;10.54;100.00;99213.16;1807736;79;20995;-66
2021/05/01 04:15:25;;;;;;;26.55;18.48;;;;;;;10.65;100.00;99208.16;1807892;79;21101;-67
2021/05/01 04:17:53;;;;;;;28.12;18.75;;;;;;;10.75;100.00;99208.63;1815977;79;21523;-67
2021/05/01 04:20:21;;;;;;;28.30;17.80;;;;;;;10.84;100.00;99209.42;1815920;79;20920;-67
2021/05/01 04:22:51;;;;;;;31.77;18.37;;;;;;;10.94;100.00;99213.77;1816049;79;21625;-68
2021/05/01 04:25:19;;;;;;;31.33;20.45;;;;;;;11.00;100.00;99219.30;1815947;79;21066;-67
2021/05/01 04:27:46;;;;;;;29.23;19.95;;;;;;;11.07;100.00;99220.98;1810907;79;21181;-67
2021/05/01 04:30:16;;;;;;;28.47;20.43;;;;;;;11.15;100.00;99219.36;1815944;79;22804;-67
2021/05/01 04:32:45;;;;;;;28.75;19.67;;;;;;;11.21;100.00;99216.67;1814855;79;21000;-67
2021/05/01 04:35:12;;;;;;;28.87;19.27;;;;;;;11.29;100.00;99223.28;1800272;78;21466;-68
2021/05/01 04:37:40;;;;;;;28.12;19.80;;;;;;;11.34;100.00;99219.78;1787133;79;22024;-67
2021/05/01 04:40:10;;;;;;;29.67;19.90;;;;;;;11.39;100.00;99220.17;1801277;78;21149;-68
2021/05/01 04:42:46;;;;;;;29.60;20.08;;;;;;;11.46;100.00;99225.41;1801708;79;22275;-68
2021/05/01 04:45:10;;;;;;;28.23;19.45;;;;;;;11.55;100.00;99226.75;1762135;80;21132;-68
2021/05/01 04:47:38;;;;;;;28.20;18.90;;;;;;;11.60;100.00;99221.03;1754986;81;21125;-68
2021/05/01 04:50:08;;;;;;;28.27;18.65;;;;;;;11.64;100.00;99212.36;1728769;82;21157;-68
2021/05/01 04:52:36;;;;;;;27.93;19.25;;;;;;;11.71;100.00;99214.03;1776072;80;21089;-68
2021/05/01 04:57:47;;;;;;;27.02;18.95;;;;;;;11.86;100.00;99213.50;1888503;76;22700;-69
2021/05/01 05:00:18;;;;;;;31.52;19.85;;;;;;;11.87;99.82;99217.86;1774961;80;20926;-68
2021/05/01 05:02:46;;;;;;;27.20;19.60;;;;;;;11.96;100.00;99216.44;1773721;81;21253;-68
2021/05/01 05:05:15;;;;;;;22.50;16.75;;;;;;;12.05;99.94;99218.57;1775082;80;20942;-68
2021/05/01 05:07:43;;;;;;;27.73;18.02;;;;;;;12.14;99.58;99217.91;1773816;81;21620;-68
2021/05/01 05:10:13;;;;;;;29.02;19.17;;;;;;;12.22;99.09;99222.55;1775023;80;20895;-68
2021/05/01 05:12:42;;;;;;;28.27;19.07;;;;;;;12.32;98.84;99217.23;1773744;81;21473;-69
2021/05/01 05:15:10;;;;;;;25.52;17.23;;;;;;;12.42;98.40;99216.83;1769200;80;22395;-68
2021/05/01 05:17:38;;;;;;;26.37;18.07;;;;;;;12.54;98.03;99218.27;1726819;81;21014;-68
2021/05/01 05:20:09;;;;;;;22.62;16.15;;;;;;;12.65;97.34;99220.05;1735680;82;21025;-70
2021/05/01 05:22:36;;;;;;;28.12;19.10;;;;;;;12.74;96.68;99218.56;1721886;83;21618;-74
2021/05/01 05:25:06;;;;;;;26.87;18.05;;;;;;;12.85;96.43;99219.77;1766013;81;20919;-72
2021/05/01 05:27:33;;;;;;;29.60;17.23;;;;;;;12.94;95.08;99219.11;1765772;81;21198;-75
2021/05/01 05:30:04;;;;;;;28.98;17.52;;;;;;;12.98;93.56;99224.75;1765746;80;21553;-85
2021/05/01 05:32:31;;;;;;;25.15;16.37;;;;;;;13.02;93.72;99222.35;1764579;80;21062;-76
2021/05/01 05:34:59;;;;;;;23.70;16.50;;;;;;;13.14;93.72;99216.08;1735518;82;21134;-71
2021/05/01 05:37:27;;;;;;;24.15;17.23;;;;;;;13.26;93.04;99221.65;1735374;82;21162;-74
2021/05/01 05:39:55;;;;;;;24.07;16.60;;;;;;;13.36;92.51;99222.56;1735522;82;22166;-75
2021/05/01 05:42:24;;;;;;;23.85;17.12;;;;;;;13.48;92.11;99230.05;1735302;82;20953;-73
2021/05/01 05:44:52;;;;;;;27.10;17.05;;;;;;;13.59;91.65;99231.22;1735522;82;21024;-75
2021/05/01 05:47:20;;;;;;;27.62;17.52;;;;;;;13.71;90.47;99233.98;1735597;82;21835;-73
2021/05/01 05:49:48;;;;;;;26.20;18.02;;;;;;;13.77;89.10;99231.81;1735515;81;21123;-73
2021/05/01 05:52:16;;;;;;;27.32;17.90;;;;;;;13.86;89.69;99226.98;1735259;82;21362;-71
2021/05/01 05:54:44;;;;;;;28.05;17.90;;;;;;;13.98;88.67;99226.95;1735634;82;20949;-72
2021/05/01 05:57:11;;;;;;;24.92;16.90;;;;;;;14.08;88.77;99228.44;1741548;81;20955;-78
2021/05/01 05:59:42;;;;;;;23.38;17.12;;;;;;;14.20;88.79;99228.43;1759063;81;20983;-75
2021/05/01 06:02:15;;;;;;;23.60;16.82;;;;;;;14.31;87.77;99232.33;1737866;81;22213;-73
2021/05/01 06:05:03;;;;;;;24.52;15.03;;;;;;;14.36;86.69;99232.09;1754710;81;21371;-69
2021/05/01 06:07:44;;;;;;;24.50;17.50;;;;;;;14.44;85.28;99239.44;1754928;81;21115;-70
2021/05/01 06:10:11;;;;;;;24.18;16.60;;;;;;;14.48;84.39;99229.30;1756452;80;20995;-79
2021/05/01 06:12:40;;;;;;;22.90;16.75;;;;;;;14.53;84.36;99236.54;1727532;81;21634;-80
2021/05/01 06:15:14;;;;;;;24.07;16.80;;;;;;;14.60;84.57;99235.95;1754803;81;21631;-76
2021/05/01 06:17:42;;;;;;;22.60;16.48;;;;;;;14.69;84.98;99238.80;1720983;82;22183;-80
2021/05/01 06:20:12;;;;;;;23.85;16.20;;;;;;;14.86;85.06;99245.41;1727728;82;21216;-70
2021/05/01 06:22:40;;;;;;;22.67;15.78;;;;;;;15.02;84.00;99242.67;1727180;81;21161;-70
2021/05/01 06:25:11;;;;;;;27.15;15.88;;;;;;;15.19;83.68;99245.13;1733822;82;21180;-68
2021/05/01 06:27:39;;;;;;;31.35;15.98;;;;;;;15.33;83.09;99236.41;1745732;81;21171;-69
2021/05/01 06:30:10;;;;;;;31.35;17.17;;;;;;;15.52;82.70;99234.34;1734336;81;21198;-69
2021/05/01 06:32:38;;;;;;;24.98;15.20;;;;;;;15.64;80.69;99238.41;1732546;81;21065;-76
2021/05/01 06:35:08;;;;;;;20.27;14.35;;;;;;;15.73;81.36;99234.08;1734632;82;21177;-76
2021/05/01 06:37:35;;;;;;;22.35;14.50;;;;;;;15.88;79.90;99241.58;1724926;83;21175;-77
2021/05/01 06:40:12;;;;;;;24.02;15.25;;;;;;;15.95;76.97;99234.03;1708023;82;21123;-75
2021/05/01 06:42:39;;;;;;;21.20;14.73;;;;;;;16.04;78.26;99241.56;1724998;83;21465;-76
2021/05/01 06:45:16;;;;;;;22.95;14.13;;;;;;;16.22;78.19;99244.73;1734934;82;21293;-76
2021/05/01 06:47:55;;;;;;;19.92;13.93;;;;;;;16.34;77.22;99241.26;1724824;83;21076;-73
2021/05/01 06:50:26;;;;;;;22.07;14.20;;;;;;;16.47;74.88;99241.36;1727581;81;21101;-72
2021/05/01 06:52:57;;;;;;;18.23;13.50;;;;;;;16.57;74.83;99244.14;1716692;82;21185;-73
2021/05/01 06:55:27;;;;;;;29.07;14.90;;;;;;;16.74;75.64;99242.95;1716191;83;21374;-72
2021/05/01 06:57:55;;;;;;;18.55;12.90;;;;;;;16.92;73.09;99242.71;1716383;83;21110;-73
2021/05/01 07:00:26;;;;;;;16.67;12.47;;;;;;;17.05;71.54;99248.33;1723003;81;21018;-71
2021/05/01 07:03:07;;;;;;;19.67;11.70;;;;;;;17.19;72.04;99247.00;1739884;81;21078;-72
2021/05/01 07:05:36;;;;;;;18.33;11.03;;;;;;;17.38;68.30;99248.33;1756360;81;21058;-73
2021/05/01 07:08:05;;;;;;;15.72;10.00;;;;;;;17.47;67.06;99239.19;1755007;81;21313;-72
2021/05/01 07:10:33;;;;;;;13.60;6.50;;;;;;;17.54;65.26;99242.09;1733227;82;21046;-71
2021/05/01 07:13:00;;;;;;;9.95;6.62;;;;;;;17.64;62.59;99243.45;1755158;81;20982;-71
2021/05/01 07:15:29;;;;;;;15.72;7.30;;;;;;;17.76;59.21;99232.19;1737060;82;21585;-69
2021/05/01 07:17:57;;;;;;;10.25;6.25;;;;;;;17.88;58.05;99232.59;1755296;81;21114;-73
2021/05/01 07:20:25;;;;;;;10.90;6.12;;;;;;;18.02;56.32;99242.51;1751715;81;21220;-72
2021/05/01 07:22:56;;;;;;;14.05;7.30;;;;;;;18.18;56.34;99245.14;1752044;82;21500;-79
2021/05/01 07:25:26;;;;;;;9.38;5.33;;;;;;;18.34;56.88;99249.36;1751897;82;21164;-77
2021/05/01 07:28:04;;;;;;;6.25;4.65;;;;;;;18.51;54.73;99244.41;1751697;82;21346;-73
2021/05/01 07:30:41;;;;;;;7.30;4.90;;;;;;;18.64;50.22;99249.39;1751908;82;21164;-76
2021/05/01 07:33:14;;;;;;;8.10;4.97;;;;;;;18.72;48.60;99246.92;1751870;82;21201;-76
2021/05/01 07:35:43;;;;;;;8.68;5.00;;;;;;;18.79;45.38;99253.16;1751699;82;20974;-76
2021/05/01 07:38:12;;;;;;;9.08;5.42;;;;;;;18.87;47.20;99258.23;1738098;81;21089;-75
2021/05/01 07:40:42;;;;;;;5.58;3.80;;;;;;;18.99;49.22;99260.18;1754849;81;21025;-71
2021/05/01 07:43:15;;;;;;;10.00;4.65;;;;;;;19.18;47.28;99261.97;1754479;81;21002;-74
2021/05/01 07:45:43;;;;;;;6.25;4.37;;;;;;;19.29;43.99;99273.22;1716365;83;21216;-73
2021/05/01 07:48:11;;;;;;;7.67;3.87;;;;;;;19.34;45.61;99265.92;1751561;82;21002;-76
2021/05/01 07:50:39;;;;;;;9.38;3.72;;;;;;;19.49;47.20;99270.47;1739393;82;21170;-78
2021/05/01 07:53:07;;;;;;;5.72;3.98;;;;;;;19.73;44.62;99268.52;1734853;82;21024;-76
2021/05/01 07:55:37;;;;;;;5.45;3.90;;;;;;;20.03;46.04;99263.41;1724944;83;21230;-76
2021/05/01 07:58:05;;;;;;;7.33;4.00;;;;;;;20.42;42.35;99267.89;1734610;82;21396;-77
2021/05/01 08:00:33;;;;;;;7.97;4.03;;;;;;;20.62;42.02;99256.66;1724844;83;21173;-76
2021/05/01 08:03:02;;;;;;;10.60;5.28;;;;;;;20.79;43.80;99256.55;1734633;82;21008;-76
2021/05/01 08:05:30;;;;;;;7.35;4.25;;;;;;;21.06;42.61;99256.45;1725239;83;21028;-77
2021/05/01 08:08:01;;;;;;;10.63;4.08;;;;;;;21.39;40.03;99257.36;1694111;83;20957;-74
2021/05/01 08:10:29;;;;;;;5.50;3.27;;;;;;;21.69;41.17;99257.82;1735314;82;22313;-76
2021/05/01 08:12:57;;;;;;;6.67;4.10;;;;;;;21.96;40.26;99263.00;1725273;83;21039;-76
2021/05/01 08:15:28;;;;;;;7.58;4.55;;;;;;;22.13;37.30;99269.23;1733844;82;21128;-76
2021/05/01 08:17:54;;;;;;;5.75;3.85;;;;;;;22.12;37.47;99259.24;1736390;81;21560;-75
2021/05/01 08:20:22;;;;;;;12.80;4.15;;;;;;;22.06;35.51;99253.85;1735238;82;21153;-77
2021/05/01 08:22:50;;;;;;;7.28;4.62;;;;;;;21.86;37.54;99260.44;1755415;81;22280;-77
2021/05/01 08:25:17;;;;;;;7.50;4.03;;;;;;;21.91;39.18;99254.45;1735122;82;20994;-75
2021/05/01 08:27:45;;;;;;;5.47;4.03;;;;;;;22.17;39.08;99258.84;1755611;81;20935;-76
2021/05/01 08:30:16;;;;;;;8.28;4.22;;;;;;;22.53;38.29;99260.20;1752077;82;21512;-74
2021/05/01 08:32:44;;;;;;;8.63;4.05;;;;;;;22.72;38.10;99263.92;1752281;81;21065;-75
2021/05/01 08:35:16;;;;;;;7.28;4.80;;;;;;;22.86;35.67;99263.91;1752166;82;21506;-75
2021/05/01 08:37:44;;;;;;;6.37;4.22;;;;;;;22.88;35.70;99267.70;1752650;81;20942;-76
2021/05/01 08:40:13;;;;;;;7.17;4.33;;;;;;;22.80;36.08;99268.33;1728476;82;20976;-75
2021/05/01 08:42:46;;;;;;;7.40;4.10;;;;;;;22.57;35.28;99265.16;1765618;81;21081;-75
2021/05/01 08:45:17;;;;;;;6.60;4.22;;;;;;;22.31;36.23;99272.02;1753610;81;21053;-75
2021/05/01 08:47:47;;;;;;;7.70;3.80;;;;;;;22.20;36.62;99272.62;1735617;82;21471;-76
2021/05/01 08:50:31;;;;;;;5.75;3.40;;;;;;;22.03;37.05;99270.02;1726682;82;21462;-76
2021/05/01 08:53:00;;;;;;;5.80;3.60;;;;;;;21.93;36.39;99272.22;1706784;83;28637;-75
2021/05/01 08:55:34;;;;;;;7.83;3.95;;;;;;;21.97;38.18;99274.38;1735881;81;20966;-73
2021/05/01 08:58:03;;;;;;;8.13;3.75;;;;;;;22.13;37.64;99273.42;1767184;81;21125;-75
2021/05/01 09:00:32;;;;;;;5.75;3.90;;;;;;;22.42;36.71;99272.00;1758407;81;21435;-77
2021/05/01 09:03:05;;;;;;;9.20;3.70;;;;;;;22.75;36.60;99268.70;1768679;81;21560;-75
2021/05/01 09:05:33;;;;;;;7.20;3.70;;;;;;;23.11;35.09;99264.42;1732464;81;20954;-76
2021/05/01 09:08:09;;;;;;;7.45;3.98;;;;;;;23.31;36.69;99263.48;1727069;81;21501;-76
2021/05/01 09:10:51;;;;;;;8.33;3.52;;;;;;;23.48;35.81;99261.80;1769107;81;21042;-75
2021/05/01 09:13:26;;;;;;;5.47;3.20;;;;;;;23.46;34.57;99263.41;1771019;81;21682;-76
2021/05/01 09:16:07;;;;;;;10.43;6.72;;;;;;;23.56;33.82;99264.78;1768621;81;20936;-75
2021/05/01 09:18:58;;;;;;;8.15;4.70;;;;;;;23.52;33.92;99273.78;1768549;81;20931;-75
2021/05/01 09:21:29;;;;;;;7.83;4.03;;;;;;;23.37;36.33;99263.86;1768521;81;21064;-75
2021/05/01 09:23:57;;;;;;;8.08;4.08;;;;;;;23.49;36.08;99260.59;1768852;81;21149;-75
2021/05/01 09:26:42;;;;;;;6.15;4.10;;;;;;;23.55;34.44;99253.38;1768697;81;22226;-74
2021/05/01 09:29:11;;;;;;;5.85;3.37;;;;;;;23.52;34.38;99258.38;1764495;81;21152;-75
2021/05/01 09:31:48;;;;;;;6.95;3.72;;;;;;;23.53;32.97;99253.56;1755655;80;21156;-76
2021/05/01 09:34:15;;;;;;;6.35;4.47;;;;;;;23.66;33.59;99259.72;1715762;82;21458;-75
2021/05/01 09:36:43;;;;;;;6.35;3.80;;;;;;;23.86;33.29;99254.34;1736625;80;21084;-76
2021/05/01 09:39:12;;;;;;;7.72;4.62;;;;;;;23.99;33.38;99251.84;1723328;82;21340;-76
2021/05/01 09:41:46;;;;;;;8.05;4.62;;;;;;;24.18;31.68;99247.67;1706590;84;20972;-76
2021/05/01 09:44:18;;;;;;;5.83;4.17;;;;;;;24.01;32.03;99248.02;1705100;84;21054;-74
2021/05/01 09:46:53;;;;;;;6.55;4.40;;;;;;;23.81;33.27;99241.38;1736013;82;21153;-75
2021/05/01 09:49:31;;;;;;;4.28;3.30;;;;;;;23.59;32.34;99248.55;1736096;82;21153;-75
2021/05/01 09:52:05;;;;;;;4.33;2.98;;;;;;;23.62;32.18;99242.12;1737663;81;21369;-76
2021/05/01 09:54:38;;;;;;;6.33;4.05;;;;;;;23.89;32.00;99245.72;1737690;82;22027;-76
2021/05/01 09:57:09;;;;;;;5.25;3.70;;;;;;;24.25;31.87;99247.61;1737507;82;21176;-75
2021/05/01 09:59:54;;;;;;;4.20;3.08;;;;;;;24.62;30.56;99249.05;1738407;82;21162;-75
2021/05/01 10:02:26;;;;;;;5.12;3.10;;;;;;;24.72;28.83;99249.34;1738254;82;21086;-75
2021/05/01 10:05:06;;;;;;;3.37;2.47;;;;;;;24.63;28.76;99242.83;1737434;82;22355;-75
2021/05/01 10:07:36;;;;;;;6.22;3.02;;;;;;;24.75;29.70;99238.08;1738605;82;21083;-75
2021/05/01 10:10:05;;;;;;;5.67;2.60;;;;;;;24.98;29.75;99234.59;1738802;82;21099;-75
2021/05/01 10:12:38;;;;;;;6.30;2.87;;;;;;;24.98;28.08;99229.78;1738715;82;21075;-75
2021/05/01 10:15:17;;;;;;;7.05;2.77;;;;;;;25.12;29.13;99233.02;1738772;82;21495;-76
2021/05/01 10:17:47;;;;;;;6.75;2.80;;;;;;;25.35;30.04;99228.09;1737889;82;21281;-74
2021/05/01 10:20:15;;;;;;;5.30;2.60;;;;;;;25.48;29.07;99231.89;1738675;82;20956;-75
2021/05/01 10:22:46;;;;;;;6.37;2.80;;;;;;;25.63;26.50;99238.09;1738733;82;21059;-75
2021/05/01 10:25:23;;;;;;;5.92;3.92;;;;;;;25.72;27.12;99234.78;1738422;82;21190;-76
2021/05/01 10:30:48;;;;;;;4.37;2.67;;;;;;;25.71;25.87;99229.77;1909737;74;22842;-76
2021/05/01 10:33:32;;;;;;;3.58;2.67;;;;;;;25.50;25.78;99228.66;1850094;77;20873;-76
2021/05/01 10:36:25;;;;;;;3.52;2.60;;;;;;;25.24;26.40;99223.23;1849980;77;21184;-77
2021/05/01 10:39:06;;;;;;;3.27;2.58;;;;;;;25.13;27.79;99220.56;1799813;78;20951;-76
2021/05/01 10:41:36;;;;;;;5.45;3.25;;;;;;;25.31;27.52;99221.13;1789287;79;20932;-76
2021/05/01 10:44:06;;;;;;;5.90;3.47;;;;;;;25.52;26.58;99214.98;1830486;77;21584;-76
2021/05/01 10:46:39;;;;;;;7.30;3.35;;;;;;;25.58;25.90;99216.09;1848598;77;21292;-76
2021/05/01 10:49:09;;;;;;;4.78;2.70;;;;;;;25.50;25.48;99211.19;1850095;77;22252;-74
2021/05/01 10:51:41;;;;;;;4.47;2.67;;;;;;;25.48;25.58;99209.41;1849260;77;20979;-75
2021/05/01 10:54:15;;;;;;;6.40;3.33;;;;;;;25.43;26.21;99208.48;1849483;77;21090;-73
2021/05/01 10:56:48;;;;;;;5.55;2.30;;;;;;;25.41;25.58;99210.16;1849174;77;21519;-73
2021/05/01 10:59:20;;;;;;;7.58;2.50;;;;;;;25.43;26.16;99218.31;1849327;77;20963;-74
2021/05/01 11:01:49;;;;;;;3.50;2.60;;;;;;;25.40;25.99;99212.17;1848946;77;21337;-75
2021/05/01 11:04:21;;;;;;;4.05;2.45;;;;;;;25.40;26.79;99220.59;1848822;77;21023;-76
2021/05/01 11:07:08;;;;;;;6.97;2.90;;;;;;;25.56;25.55;99217.92;1850012;77;21061;-76
2021/05/01 11:09:46;;;;;;;4.50;2.52;;;;;;;25.67;26.05;99216.37;1849940;77;20916;-75
2021/05/01 11:12:20;;;;;;;7.87;2.60;;;;;;;25.63;24.46;99215.00;1850085;77;21443;-76
2021/05/01 11:15:04;;;;;;;3.47;2.30;;;;;;;25.51;23.96;99211.98;1834186;77;21031;-76
2021/05/01 11:17:47;;;;;;;2.83;2.02;;;;;;;25.33;24.94;99213.67;1816347;79;21053;-75
2021/05/01 11:20:16;;;;;;;4.30;2.83;;;;;;;25.21;24.53;99212.23;1815719;79;21014;-74
2021/05/01 11:22:49;;;;;;;3.77;2.75;;;;;;;25.14;25.25;99212.33;1795125;78;21073;-75
2021/05/01 11:25:19;;;;;;;3.52;2.33;;;;;;;25.09;25.20;99214.81;1782883;80;20920;-75
2021/05/01 11:27:50;;;;;;;5.47;2.58;;;;;;;25.00;24.04;99204.09;1783107;78;22119;-74
2021/05/01 11:30:24;;;;;;;3.60;2.85;;;;;;;24.85;25.87;99204.84;1783980;80;21042;-75
2021/05/01 11:32:52;;;;;;;3.58;2.75;;;;;;;24.97;25.21;99205.72;1810527;78;21045;-74
2021/05/01 11:35:25;;;;;;;3.67;2.37;;;;;;;25.06;24.76;99193.98;1750787;82;21159;-72
2021/05/01 11:37:56;;;;;;;6.70;2.65;;;;;;;25.13;25.83;99198.09;1837811;78;21100;-74
2021/05/01 11:40:27;;;;;;;2.75;2.52;;;;;;;25.30;25.88;99196.26;1751016;82;21409;-74
2021/05/01 11:42:56;;;;;;;5.53;2.40;;;;;;;25.46;24.09;99200.61;1837554;78;21136;-74